sensor_id;sensor_type;location;lat;lon;timestamp;temperature;humidity
79750;SHT31;69233;51.968;5.658;2024-03-23T00:54:48;11.8;66.5
79750;SHT31;69233;51.968;5.658;2024-03-23T00:57:16;11.7;67.2
79750;SHT31;69233;51.968;5.658;2024-03-23T00:59:45;11.7;67.3
79750;SHT31;69233;51.968;5.658;2024-03-23T01:02:13;11.7;66.8
79750;SHT31;69233;51.968;5.658;2024-03-23T01:04:42;11.7;67.7
79750;SHT31;69233;51.968;5.658;2024-03-23T01:07:10;11.7;68.0
79750;SHT31;69233;51.968;5.658;2024-03-23T01:09:39;11.7;67.5
79750;SHT31;69233;51.968;5.658;2024-03-23T01:12:10;11.7;67.9
79750;SHT31;69233;51.968;5.658;2024-03-23T01:14:38;11.6;67.8
79750;SHT31;69233;51.968;5.658;2024-03-23T01:17:07;11.6;68.2
79750;SHT31;69233;51.968;5.658;2024-03-23T01:19:35;11.6;68.4
79750;SHT31;69233;51.968;5.658;2024-03-23T01:22:05;11.6;68.2
79750;SHT31;69233;51.968;5.658;2024-03-23T01:24:34;11.6;68.3
79750;SHT31;69233;51.968;5.658;2024-03-23T01:27:03;11.6;68.6
79750;SHT31;69233;51.968;5.658;2024-03-23T01:29:33;11.6;68.6
79750;SHT31;69233;51.968;5.658;2024-03-23T01:32:02;11.6;68.5
79750;SHT31;69233;51.968;5.658;2024-03-23T01:34:30;11.6;68.3
79750;SHT31;69233;51.968;5.658;2024-03-23T01:36:59;11.6;67.8
79750;SHT31;69233;51.968;5.658;2024-03-23T01:39:28;11.6;68.3
79750;SHT31;69233;51.968;5.658;2024-03-23T01:41:57;11.6;68.4
79750;SHT31;69233;51.968;5.658;2024-03-23T01:44:25;11.6;68.6
79750;SHT31;69233;51.968;5.658;2024-03-23T01:46:54;11.6;68.1
79750;SHT31;69233;51.968;5.658;2024-03-23T01:49:24;11.6;68.2
79750;SHT31;69233;51.968;5.658;2024-03-23T01:51:53;11.6;68.3
79750;SHT31;69233;51.968;5.658;2024-03-23T01:54:24;11.6;68.4
79750;SHT31;69233;51.968;5.658;2024-03-23T01:56:54;11.6;68.3
79750;SHT31;69233;51.968;5.658;2024-03-23T01:59:23;11.6;67.8
79750;SHT31;69233;51.968;5.658;2024-03-23T02:01:52;11.6;68.1
79750;SHT31;69233;51.968;5.658;2024-03-23T02:04:21;11.6;67.8
79750;SHT31;69233;51.968;5.658;2024-03-23T02:06:49;11.6;68.4
79750;SHT31;69233;51.968;5.658;2024-03-23T02:09:18;11.6;68.4
79750;SHT31;69233;51.968;5.658;2024-03-23T02:11:47;11.6;68.3
79750;SHT31;69233;51.968;5.658;2024-03-23T02:14:15;11.6;68.1
79750;SHT31;69233;51.968;5.658;2024-03-23T02:16:44;11.6;68.1
79750;SHT31;69233;51.968;5.658;2024-03-23T02:19:13;11.6;67.9
79750;SHT31;69233;51.968;5.658;2024-03-23T02:21:42;11.6;68.3
79750;SHT31;69233;51.968;5.658;2024-03-23T02:24:10;11.6;68.3
79750;SHT31;69233;51.968;5.658;2024-03-23T02:26:39;11.6;67.7
79750;SHT31;69233;51.968;5.658;2024-03-23T02:29:07;11.6;67.4
79750;SHT31;69233;51.968;5.658;2024-03-23T02:31:37;11.6;67.2
79750;SHT31;69233;51.968;5.658;2024-03-23T02:34:05;11.6;66.7
79750;SHT31;69233;51.968;5.658;2024-03-23T02:36:36;11.5;67.1
79750;SHT31;69233;51.968;5.658;2024-03-23T02:39:04;11.5;67.0
79750;SHT31;69233;51.968;5.658;2024-03-23T02:41:33;11.4;67.2
79750;SHT31;69233;51.968;5.658;2024-03-23T02:44:02;11.4;67.1
79750;SHT31;69233;51.968;5.658;2024-03-23T02:46:31;11.4;67.2
79750;SHT31;69233;51.968;5.658;2024-03-23T02:48:59;11.3;67.1
79750;SHT31;69233;51.968;5.658;2024-03-23T02:51:31;11.3;67.1
79750;SHT31;69233;51.968;5.658;2024-03-23T02:53:59;11.2;67.2
79750;SHT31;69233;51.968;5.658;2024-03-23T02:56:28;11.2;67.3
79750;SHT31;69233;51.968;5.658;2024-03-23T02:58:56;11.1;67.2
79750;SHT31;69233;51.968;5.658;2024-03-23T03:01:25;11.1;67.2
79750;SHT31;69233;51.968;5.658;2024-03-23T03:03:54;11.0;67.4
79750;SHT31;69233;51.968;5.658;2024-03-23T03:06:27;11.0;67.8
79750;SHT31;69233;51.968;5.658;2024-03-23T03:08:58;10.9;67.7
79750;SHT31;69233;51.968;5.658;2024-03-23T03:11:27;10.9;67.6
79750;SHT31;69233;51.968;5.658;2024-03-23T03:13:55;10.8;67.6
79750;SHT31;69233;51.968;5.658;2024-03-23T03:16:26;10.8;67.7
79750;SHT31;69233;51.968;5.658;2024-03-23T03:18:55;10.7;67.7
79750;SHT31;69233;51.968;5.658;2024-03-23T03:21:23;10.7;68.0
79750;SHT31;69233;51.968;5.658;2024-03-23T03:23:54;10.6;68.1
79750;SHT31;69233;51.968;5.658;2024-03-23T03:26:23;10.6;68.8
79750;SHT31;69233;51.968;5.658;2024-03-23T03:28:51;10.6;68.9
79750;SHT31;69233;51.968;5.658;2024-03-23T03:31:22;10.6;68.6
79750;SHT31;69233;51.968;5.658;2024-03-23T03:33:51;10.5;69.1
79750;SHT31;69233;51.968;5.658;2024-03-23T03:36:19;10.5;68.4
79750;SHT31;69233;51.968;5.658;2024-03-23T03:38:50;10.5;68.0
79750;SHT31;69233;51.968;5.658;2024-03-23T03:41:19;10.5;68.2
79750;SHT31;69233;51.968;5.658;2024-03-23T03:43:47;10.5;68.2
79750;SHT31;69233;51.968;5.658;2024-03-23T03:46:16;10.4;68.0
79750;SHT31;69233;51.968;5.658;2024-03-23T03:48:44;10.4;68.0
79750;SHT31;69233;51.968;5.658;2024-03-23T03:51:14;10.4;68.1
79750;SHT31;69233;51.968;5.658;2024-03-23T03:53:43;10.4;67.7
79750;SHT31;69233;51.968;5.658;2024-03-23T03:56:11;10.3;67.4
79750;SHT31;69233;51.968;5.658;2024-03-23T03:58:40;10.3;67.3
79750;SHT31;69233;51.968;5.658;2024-03-23T04:01:08;10.3;67.3
79750;SHT31;69233;51.968;5.658;2024-03-23T04:03:37;10.3;67.3
79750;SHT31;69233;51.968;5.658;2024-03-23T04:06:10;10.2;67.0
79750;SHT31;69233;51.968;5.658;2024-03-23T04:08:38;10.2;67.2
79750;SHT31;69233;51.968;5.658;2024-03-23T04:11:07;10.2;66.7
79750;SHT31;69233;51.968;5.658;2024-03-23T04:13:35;10.1;66.8
79750;SHT31;69233;51.968;5.658;2024-03-23T04:16:05;10.1;66.9
79750;SHT31;69233;51.968;5.658;2024-03-23T04:18:33;10.0;66.9
79750;SHT31;69233;51.968;5.658;2024-03-23T04:21:02;10.0;66.8
79750;SHT31;69233;51.968;5.658;2024-03-23T04:23:31;10.0;66.9
79750;SHT31;69233;51.968;5.658;2024-03-23T04:26:04;9.9;66.8
79750;SHT31;69233;51.968;5.658;2024-03-23T04:28:33;9.9;66.4
79750;SHT31;69233;51.968;5.658;2024-03-23T04:31:05;9.8;66.9
79750;SHT31;69233;51.968;5.658;2024-03-23T04:33:33;9.8;67.0
79750;SHT31;69233;51.968;5.658;2024-03-23T04:36:02;9.8;67.0
79750;SHT31;69233;51.968;5.658;2024-03-23T04:38:31;9.7;66.8
79750;SHT31;69233;51.968;5.658;2024-03-23T04:40:59;9.7;66.6
79750;SHT31;69233;51.968;5.658;2024-03-23T04:43:28;9.7;67.5
79750;SHT31;69233;51.968;5.658;2024-03-23T04:45:57;9.7;66.8
79750;SHT31;69233;51.968;5.658;2024-03-23T04:48:25;9.7;66.7
79750;SHT31;69233;51.968;5.658;2024-03-23T04:50:58;9.7;66.5
79750;SHT31;69233;51.968;5.658;2024-03-23T04:53:26;9.7;65.8
79750;SHT31;69233;51.968;5.658;2024-03-23T04:55:57;9.6;65.4
79750;SHT31;69233;51.968;5.658;2024-03-23T04:58:26;9.6;65.6
79750;SHT31;69233;51.968;5.658;2024-03-23T05:00:55;9.6;66.3
79750;SHT31;69233;51.968;5.658;2024-03-23T05:03:24;9.5;66.9
79750;SHT31;69233;51.968;5.658;2024-03-23T05:05:53;9.5;66.3
79750;SHT31;69233;51.968;5.658;2024-03-23T05:08:21;9.5;66.5
79750;SHT31;69233;51.968;5.658;2024-03-23T05:10:50;9.4;66.6
79750;SHT31;69233;51.968;5.658;2024-03-23T05:13:18;9.4;66.8
79750;SHT31;69233;51.968;5.658;2024-03-23T05:15:52;9.4;66.5
79750;SHT31;69233;51.968;5.658;2024-03-23T05:18:21;9.3;66.8
79750;SHT31;69233;51.968;5.658;2024-03-23T05:20:57;9.3;66.6
79750;SHT31;69233;51.968;5.658;2024-03-23T05:23:27;9.3;66.9
79750;SHT31;69233;51.968;5.658;2024-03-23T05:25:56;9.3;66.7
79750;SHT31;69233;51.968;5.658;2024-03-23T05:28:25;9.2;66.8
79750;SHT31;69233;51.968;5.658;2024-03-23T05:30:54;9.2;66.4
79750;SHT31;69233;51.968;5.658;2024-03-23T05:33:23;9.2;66.8
79750;SHT31;69233;51.968;5.658;2024-03-23T05:35:59;9.2;67.0
79750;SHT31;69233;51.968;5.658;2024-03-23T05:38:30;9.1;66.8
79750;SHT31;69233;51.968;5.658;2024-03-23T05:41:00;9.1;67.1
79750;SHT31;69233;51.968;5.658;2024-03-23T05:43:28;9.1;66.3
79750;SHT31;69233;51.968;5.658;2024-03-23T05:45:58;9.1;66.5
79750;SHT31;69233;51.968;5.658;2024-03-23T05:48:28;9.1;66.2
79750;SHT31;69233;51.968;5.658;2024-03-23T05:50:57;9.0;66.5
79750;SHT31;69233;51.968;5.658;2024-03-23T05:53:27;9.0;66.8
79750;SHT31;69233;51.968;5.658;2024-03-23T05:56:02;9.0;67.3
79750;SHT31;69233;51.968;5.658;2024-03-23T05:58:34;9.0;67.5
79750;SHT31;69233;51.968;5.658;2024-03-23T06:01:03;9.0;67.7
79750;SHT31;69233;51.968;5.658;2024-03-23T06:03:32;9.0;67.1
79750;SHT31;69233;51.968;5.658;2024-03-23T06:06:02;9.0;68.0
79750;SHT31;69233;51.968;5.658;2024-03-23T06:08:30;9.0;68.0
79750;SHT31;69233;51.968;5.658;2024-03-23T06:10:59;9.0;68.1
79750;SHT31;69233;51.968;5.658;2024-03-23T06:13:27;9.0;69.0
79750;SHT31;69233;51.968;5.658;2024-03-23T06:15:56;9.1;67.8
79750;SHT31;69233;51.968;5.658;2024-03-23T06:18:25;9.1;68.2
79750;SHT31;69233;51.968;5.658;2024-03-23T06:20:54;9.1;68.0
79750;SHT31;69233;51.968;5.658;2024-03-23T06:23:23;9.2;67.9
79750;SHT31;69233;51.968;5.658;2024-03-23T06:25:53;9.2;68.1
79750;SHT31;69233;51.968;5.658;2024-03-23T06:28:21;9.2;68.5
79750;SHT31;69233;51.968;5.658;2024-03-23T06:30:50;9.2;68.0
79750;SHT31;69233;51.968;5.658;2024-03-23T06:33:18;9.3;67.7
79750;SHT31;69233;51.968;5.658;2024-03-23T06:35:51;9.3;66.8
79750;SHT31;69233;51.968;5.658;2024-03-23T06:38:20;9.3;67.2
79750;SHT31;69233;51.968;5.658;2024-03-23T06:40:49;9.3;67.9
79750;SHT31;69233;51.968;5.658;2024-03-23T06:43:19;9.3;67.1
79750;SHT31;69233;51.968;5.658;2024-03-23T06:45:54;9.3;67.6
79750;SHT31;69233;51.968;5.658;2024-03-23T06:48:23;9.4;67.3
79750;SHT31;69233;51.968;5.658;2024-03-23T06:50:55;9.4;67.2
79750;SHT31;69233;51.968;5.658;2024-03-23T06:53:24;9.4;66.7
79750;SHT31;69233;51.968;5.658;2024-03-23T06:55:53;9.5;65.3
79750;SHT31;69233;51.968;5.658;2024-03-23T06:58:24;9.5;66.1
79750;SHT31;69233;51.968;5.658;2024-03-23T07:00:55;9.6;66.5
79750;SHT31;69233;51.968;5.658;2024-03-23T07:03:23;9.6;64.9
79750;SHT31;69233;51.968;5.658;2024-03-23T07:05:52;9.6;65.3
79750;SHT31;69233;51.968;5.658;2024-03-23T07:08:21;9.6;65.8
79750;SHT31;69233;51.968;5.658;2024-03-23T07:10:49;9.6;65.8
79750;SHT31;69233;51.968;5.658;2024-03-23T07:13:18;9.6;66.0
79750;SHT31;69233;51.968;5.658;2024-03-23T07:15:53;9.7;66.3
79750;SHT31;69233;51.968;5.658;2024-03-23T07:18:22;9.8;66.4
79750;SHT31;69233;51.968;5.658;2024-03-23T07:20:54;9.8;66.5
79750;SHT31;69233;51.968;5.658;2024-03-23T07:23:23;9.9;66.3
79750;SHT31;69233;51.968;5.658;2024-03-23T07:25:59;9.9;65.8
79750;SHT31;69233;51.968;5.658;2024-03-23T07:28:28;10.0;65.6
79750;SHT31;69233;51.968;5.658;2024-03-23T07:31:07;10.0;65.5
79750;SHT31;69233;51.968;5.658;2024-03-23T07:33:41;10.1;65.8
79750;SHT31;69233;51.968;5.658;2024-03-23T07:36:09;10.1;65.5
79750;SHT31;69233;51.968;5.658;2024-03-23T07:38:40;10.2;65.6
79750;SHT31;69233;51.968;5.658;2024-03-23T07:41:10;10.2;64.7
79750;SHT31;69233;51.968;5.658;2024-03-23T07:43:39;10.3;66.0
79750;SHT31;69233;51.968;5.658;2024-03-23T07:46:07;10.4;66.2
79750;SHT31;69233;51.968;5.658;2024-03-23T07:48:36;10.4;65.9
79750;SHT31;69233;51.968;5.658;2024-03-23T07:51:07;10.5;67.0
79750;SHT31;69233;51.968;5.658;2024-03-23T07:53:36;10.6;64.4
79750;SHT31;69233;51.968;5.658;2024-03-23T07:56:08;10.7;65.0
79750;SHT31;69233;51.968;5.658;2024-03-23T07:58:37;10.8;63.5
79750;SHT31;69233;51.968;5.658;2024-03-23T08:01:07;10.9;64.3
79750;SHT31;69233;51.968;5.658;2024-03-23T08:03:37;11.0;64.1
79750;SHT31;69233;51.968;5.658;2024-03-23T08:06:11;11.1;63.5
79750;SHT31;69233;51.968;5.658;2024-03-23T08:08:42;11.2;62.3
79750;SHT31;69233;51.968;5.658;2024-03-23T08:11:11;11.3;64.6
79750;SHT31;69233;51.968;5.658;2024-03-23T08:13:41;11.4;61.5
79750;SHT31;69233;51.968;5.658;2024-03-23T08:16:12;11.4;60.5
79750;SHT31;69233;51.968;5.658;2024-03-23T08:18:41;11.5;59.7
79750;SHT31;69233;51.968;5.658;2024-03-23T08:21:10;11.6;59.9
79750;SHT31;69233;51.968;5.658;2024-03-23T08:23:39;11.6;60.2
79750;SHT31;69233;51.968;5.658;2024-03-23T08:26:08;11.7;61.1
79750;SHT31;69233;51.968;5.658;2024-03-23T08:28:38;11.8;57.6
79750;SHT31;69233;51.968;5.658;2024-03-23T08:31:08;11.8;55.8
79750;SHT31;69233;51.968;5.658;2024-03-23T08:33:37;11.9;55.6
79750;SHT31;69233;51.968;5.658;2024-03-23T08:36:07;11.9;54.8
79750;SHT31;69233;51.968;5.658;2024-03-23T08:38:38;11.9;54.7
79750;SHT31;69233;51.968;5.658;2024-03-23T08:41:08;11.9;55.6
79750;SHT31;69233;51.968;5.658;2024-03-23T08:43:38;11.9;54.5
79750;SHT31;69233;51.968;5.658;2024-03-23T08:46:09;11.9;55.7
79750;SHT31;69233;51.968;5.658;2024-03-23T08:48:39;11.9;54.4
79750;SHT31;69233;51.968;5.658;2024-03-23T08:51:10;11.9;56.4
79750;SHT31;69233;51.968;5.658;2024-03-23T08:53:40;11.9;58.2
79750;SHT31;69233;51.968;5.658;2024-03-23T08:56:12;11.9;55.5
79750;SHT31;69233;51.968;5.658;2024-03-23T08:58:40;11.9;55.7
79750;SHT31;69233;51.968;5.658;2024-03-23T09:01:10;11.8;56.9
79750;SHT31;69233;51.968;5.658;2024-03-23T09:03:39;11.8;61.8
79750;SHT31;69233;51.968;5.658;2024-03-23T09:06:09;11.8;58.7
79750;SHT31;69233;51.968;5.658;2024-03-23T09:08:38;11.8;57.8
79750;SHT31;69233;51.968;5.658;2024-03-23T09:11:09;11.9;59.2
79750;SHT31;69233;51.968;5.658;2024-03-23T09:13:39;11.9;60.6
79750;SHT31;69233;51.968;5.658;2024-03-23T09:16:08;11.9;57.2
79750;SHT31;69233;51.968;5.658;2024-03-23T09:18:38;11.9;57.8
79750;SHT31;69233;51.968;5.658;2024-03-23T09:21:11;12.0;57.2
79750;SHT31;69233;51.968;5.658;2024-03-23T09:23:43;12.1;57.0
79750;SHT31;69233;51.968;5.658;2024-03-23T09:26:11;12.2;57.8
79750;SHT31;69233;51.968;5.658;2024-03-23T09:28:40;12.3;56.8
79750;SHT31;69233;51.968;5.658;2024-03-23T09:31:09;12.4;55.3
79750;SHT31;69233;51.968;5.658;2024-03-23T09:33:41;12.5;56.0
79750;SHT31;69233;51.968;5.658;2024-03-23T09:36:10;12.6;57.3
79750;SHT31;69233;51.968;5.658;2024-03-23T09:38:38;12.7;55.9
79750;SHT31;69233;51.968;5.658;2024-03-23T09:41:09;12.8;56.9
79750;SHT31;69233;51.968;5.658;2024-03-23T09:43:38;13.0;55.6
79750;SHT31;69233;51.968;5.658;2024-03-23T09:46:07;13.1;54.0
79750;SHT31;69233;51.968;5.658;2024-03-23T09:48:36;13.3;53.7
79750;SHT31;69233;51.968;5.658;2024-03-23T09:51:07;13.4;51.9
79750;SHT31;69233;51.968;5.658;2024-03-23T09:53:37;13.5;52.7
79750;SHT31;69233;51.968;5.658;2024-03-23T09:56:07;13.6;49.2
79750;SHT31;69233;51.968;5.658;2024-03-23T09:58:36;13.7;50.5
79750;SHT31;69233;51.968;5.658;2024-03-23T10:01:05;13.8;48.5
79750;SHT31;69233;51.968;5.658;2024-03-23T10:03:44;13.9;48.2
79750;SHT31;69233;51.968;5.658;2024-03-23T10:06:12;14.0;45.3
79750;SHT31;69233;51.968;5.658;2024-03-23T10:08:41;14.1;46.3
79750;SHT31;69233;51.968;5.658;2024-03-23T10:11:16;14.1;46.6
79750;SHT31;69233;51.968;5.658;2024-03-23T10:13:47;14.2;45.5
79750;SHT31;69233;51.968;5.658;2024-03-23T10:16:24;14.2;48.6
79750;SHT31;69233;51.968;5.658;2024-03-23T10:18:53;14.2;48.6
79750;SHT31;69233;51.968;5.658;2024-03-23T10:21:21;14.0;49.9
79750;SHT31;69233;51.968;5.658;2024-03-23T10:23:50;13.8;50.4
79750;SHT31;69233;51.968;5.658;2024-03-23T10:26:20;13.7;52.2
79750;SHT31;69233;51.968;5.658;2024-03-23T10:28:55;13.6;52.3
79750;SHT31;69233;51.968;5.658;2024-03-23T10:31:27;13.5;50.7
79750;SHT31;69233;51.968;5.658;2024-03-23T10:33:59;13.5;51.7
79750;SHT31;69233;51.968;5.658;2024-03-23T10:36:29;13.6;50.0
79750;SHT31;69233;51.968;5.658;2024-03-23T10:38:59;13.6;52.7
79750;SHT31;69233;51.968;5.658;2024-03-23T10:41:28;13.7;53.8
79750;SHT31;69233;51.968;5.658;2024-03-23T10:43:58;13.8;48.7
79750;SHT31;69233;51.968;5.658;2024-03-23T10:46:27;13.9;45.1
79750;SHT31;69233;51.968;5.658;2024-03-23T10:48:56;13.9;46.2
79750;SHT31;69233;51.968;5.658;2024-03-23T10:51:25;13.9;45.9
79750;SHT31;69233;51.968;5.658;2024-03-23T10:53:55;13.9;48.5
79750;SHT31;69233;51.968;5.658;2024-03-23T10:56:29;14.0;49.7
79750;SHT31;69233;51.968;5.658;2024-03-23T10:59:02;14.2;45.5
79750;SHT31;69233;51.968;5.658;2024-03-23T11:01:34;14.3;44.2
79750;SHT31;69233;51.968;5.658;2024-03-23T11:04:02;14.4;43.5
79750;SHT31;69233;51.968;5.658;2024-03-23T11:06:38;14.4;46.5
79750;SHT31;69233;51.968;5.658;2024-03-23T11:10:24;14.5;47.9
79750;SHT31;69233;51.968;5.658;2024-03-23T11:12:53;14.7;44.6
79750;SHT31;69233;51.968;5.658;2024-03-23T11:15:22;14.8;47.1
79750;SHT31;69233;51.968;5.658;2024-03-23T11:18:07;14.9;44.4
79750;SHT31;69233;51.968;5.658;2024-03-23T11:20:36;14.9;42.8
79750;SHT31;69233;51.968;5.658;2024-03-23T11:23:05;14.9;42.7
79750;SHT31;69233;51.968;5.658;2024-03-23T11:25:34;14.9;44.0
79750;SHT31;69233;51.968;5.658;2024-03-23T11:28:12;14.7;47.4
79750;SHT31;69233;51.968;5.658;2024-03-23T11:30:42;14.6;50.3
79750;SHT31;69233;51.968;5.658;2024-03-23T11:33:10;14.6;48.4
79750;SHT31;69233;51.968;5.658;2024-03-23T11:35:40;14.7;47.8
79750;SHT31;69233;51.968;5.658;2024-03-23T11:38:10;14.8;51.3
79750;SHT31;69233;51.968;5.658;2024-03-23T11:40:41;15.0;47.6
79750;SHT31;69233;51.968;5.658;2024-03-23T11:43:11;15.2;43.5
79750;SHT31;69233;51.968;5.658;2024-03-23T11:45:44;15.2;43.8
79750;SHT31;69233;51.968;5.658;2024-03-23T11:48:14;15.2;43.0
79750;SHT31;69233;51.968;5.658;2024-03-23T11:50:45;15.2;43.0
79750;SHT31;69233;51.968;5.658;2024-03-23T11:53:18;15.1;43.2
79750;SHT31;69233;51.968;5.658;2024-03-23T11:55:48;15.0;45.3
79750;SHT31;69233;51.968;5.658;2024-03-23T11:58:18;15.0;46.0
79750;SHT31;69233;51.968;5.658;2024-03-23T12:00:52;15.0;47.9
79750;SHT31;69233;51.968;5.658;2024-03-23T12:03:21;15.0;46.2
79750;SHT31;69233;51.968;5.658;2024-03-23T12:05:53;15.0;45.3
79750;SHT31;69233;51.968;5.658;2024-03-23T12:08:24;15.0;43.1
79750;SHT31;69233;51.968;5.658;2024-03-23T12:11:06;14.9;44.6
79750;SHT31;69233;51.968;5.658;2024-03-23T12:13:36;14.9;45.3
79750;SHT31;69233;51.968;5.658;2024-03-23T12:16:12;14.9;44.8
79750;SHT31;69233;51.968;5.658;2024-03-23T12:18:42;14.9;42.5
79750;SHT31;69233;51.968;5.658;2024-03-23T12:21:11;14.8;42.5
79750;SHT31;69233;51.968;5.658;2024-03-23T12:23:42;14.8;42.3
79750;SHT31;69233;51.968;5.658;2024-03-23T12:26:13;14.8;43.7
79750;SHT31;69233;51.968;5.658;2024-03-23T12:28:43;14.9;46.5
79750;SHT31;69233;51.968;5.658;2024-03-23T12:31:14;15.3;46.7
79750;SHT31;69233;51.968;5.658;2024-03-23T12:33:42;16.2;41.3
79750;SHT31;69233;51.968;5.658;2024-03-23T12:36:11;17.1;39.8
79750;SHT31;69233;51.968;5.658;2024-03-23T12:38:39;17.7;46.3
79750;SHT31;69233;51.968;5.658;2024-03-23T12:41:10;18.1;43.0
79750;SHT31;69233;51.968;5.658;2024-03-23T12:43:38;18.5;37.8
79750;SHT31;69233;51.968;5.658;2024-03-23T12:46:09;18.6;35.7
79750;SHT31;69233;51.968;5.658;2024-03-23T12:48:38;18.7;34.9
79750;SHT31;69233;51.968;5.658;2024-03-23T12:51:08;18.8;35.8
79750;SHT31;69233;51.968;5.658;2024-03-23T12:53:36;19.0;36.0
79750;SHT31;69233;51.968;5.658;2024-03-23T12:56:05;19.2;39.5
79750;SHT31;69233;51.968;5.658;2024-03-23T12:58:34;19.5;37.2
79750;SHT31;69233;51.968;5.658;2024-03-23T13:01:03;19.9;34.1
79750;SHT31;69233;51.968;5.658;2024-03-23T13:03:34;20.0;32.3
79750;SHT31;69233;51.968;5.658;2024-03-23T13:06:03;20.0;31.2
79750;SHT31;69233;51.968;5.658;2024-03-23T13:08:34;19.7;30.7
79750;SHT31;69233;51.968;5.658;2024-03-23T13:11:03;19.1;34.1
79750;SHT31;69233;51.968;5.658;2024-03-23T13:13:31;18.5;34.5
79750;SHT31;69233;51.968;5.658;2024-03-23T13:16:00;18.0;35.4
79750;SHT31;69233;51.968;5.658;2024-03-23T13:18:29;17.6;36.9
79750;SHT31;69233;51.968;5.658;2024-03-23T13:20:57;17.3;37.1
79750;SHT31;69233;51.968;5.658;2024-03-23T13:23:26;17.1;40.3
79750;SHT31;69233;51.968;5.658;2024-03-23T13:25:56;16.9;39.6
79750;SHT31;69233;51.968;5.658;2024-03-23T13:28:24;16.9;40.8
79750;SHT31;69233;51.968;5.658;2024-03-23T13:30:54;17.0;41.9
79750;SHT31;69233;51.968;5.658;2024-03-23T13:33:24;17.1;45.4
79750;SHT31;69233;51.968;5.658;2024-03-23T13:35:53;17.3;41.6
79750;SHT31;69233;51.968;5.658;2024-03-23T13:38:23;17.5;39.1
79750;SHT31;69233;51.968;5.658;2024-03-23T13:40:53;17.6;37.3
79750;SHT31;69233;51.968;5.658;2024-03-23T13:43:23;17.5;36.7
79750;SHT31;69233;51.968;5.658;2024-03-23T13:45:54;17.4;36.0
79750;SHT31;69233;51.968;5.658;2024-03-23T13:48:24;17.0;36.6
79750;SHT31;69233;51.968;5.658;2024-03-23T13:51:00;16.6;38.5
79750;SHT31;69233;51.968;5.658;2024-03-23T13:53:29;16.2;40.1
79750;SHT31;69233;51.968;5.658;2024-03-23T13:55:59;15.9;43.9
79750;SHT31;69233;51.968;5.658;2024-03-23T13:58:27;15.9;51.1
79750;SHT31;69233;51.968;5.658;2024-03-23T14:00:56;16.0;54.9
79750;SHT31;69233;51.968;5.658;2024-03-23T14:03:25;16.5;52.3
79750;SHT31;69233;51.968;5.658;2024-03-23T14:05:58;16.9;44.6
79750;SHT31;69233;51.968;5.658;2024-03-23T14:08:29;17.0;42.8
79750;SHT31;69233;51.968;5.658;2024-03-23T14:10:59;17.1;42.0
79750;SHT31;69233;51.968;5.658;2024-03-23T14:13:28;17.0;43.6
79750;SHT31;69233;51.968;5.658;2024-03-23T14:15:56;16.9;42.2
79750;SHT31;69233;51.968;5.658;2024-03-23T14:18:25;16.7;43.1
79750;SHT31;69233;51.968;5.658;2024-03-23T14:20:57;16.5;42.0
79750;SHT31;69233;51.968;5.658;2024-03-23T14:23:27;16.2;42.8
79750;SHT31;69233;51.968;5.658;2024-03-23T14:25:56;15.4;44.8
79750;SHT31;69233;51.968;5.658;2024-03-23T14:28:25;14.3;47.1
79750;SHT31;69233;51.968;5.658;2024-03-23T14:30:56;13.5;51.2
79750;SHT31;69233;51.968;5.658;2024-03-23T14:33:27;13.0;55.1
79750;SHT31;69233;51.968;5.658;2024-03-23T14:35:57;12.8;56.4
79750;SHT31;69233;51.968;5.658;2024-03-23T14:38:25;12.7;56.5
79750;SHT31;69233;51.968;5.658;2024-03-23T14:40:57;12.6;57.1
79750;SHT31;69233;51.968;5.658;2024-03-23T14:43:26;12.6;65.9
79750;SHT31;69233;51.968;5.658;2024-03-23T14:46:08;12.7;60.8
79750;SHT31;69233;51.968;5.658;2024-03-23T14:48:37;12.8;60.5
79750;SHT31;69233;51.968;5.658;2024-03-23T14:51:06;12.9;56.4
79750;SHT31;69233;51.968;5.658;2024-03-23T14:53:38;13.0;54.5
79750;SHT31;69233;51.968;5.658;2024-03-23T14:56:08;13.0;54.8
79750;SHT31;69233;51.968;5.658;2024-03-23T14:58:41;13.1;53.3
79750;SHT31;69233;51.968;5.658;2024-03-23T15:01:12;13.1;58.0
79750;SHT31;69233;51.968;5.658;2024-03-23T15:03:40;13.4;65.3
79750;SHT31;69233;51.968;5.658;2024-03-23T15:06:09;14.4;61.8
79750;SHT31;69233;51.968;5.658;2024-03-23T15:08:38;15.9;55.8
79750;SHT31;69233;51.968;5.658;2024-03-23T15:11:07;17.1;47.9
79750;SHT31;69233;51.968;5.658;2024-03-23T15:13:37;17.9;43.4
79750;SHT31;69233;51.968;5.658;2024-03-23T15:16:06;18.4;43.6
79750;SHT31;69233;51.968;5.658;2024-03-23T15:18:34;18.8;41.7
79750;SHT31;69233;51.968;5.658;2024-03-23T15:21:03;19.2;42.4
79750;SHT31;69233;51.968;5.658;2024-03-23T15:23:34;19.4;37.9
79750;SHT31;69233;51.968;5.658;2024-03-23T15:26:03;19.6;38.0
79750;SHT31;69233;51.968;5.658;2024-03-23T15:28:32;19.8;38.8
79750;SHT31;69233;51.968;5.658;2024-03-23T15:31:08;20.0;37.2
79750;SHT31;69233;51.968;5.658;2024-03-23T15:33:37;20.1;36.8
79750;SHT31;69233;51.968;5.658;2024-03-23T15:36:07;20.3;33.8
79750;SHT31;69233;51.968;5.658;2024-03-23T15:38:38;20.4;34.2
79750;SHT31;69233;51.968;5.658;2024-03-23T15:41:06;20.5;33.3
79750;SHT31;69233;51.968;5.658;2024-03-23T15:43:36;20.6;33.5
79750;SHT31;69233;51.968;5.658;2024-03-23T15:46:05;20.6;34.0
79750;SHT31;69233;51.968;5.658;2024-03-23T15:48:34;20.6;33.0
79750;SHT31;69233;51.968;5.658;2024-03-23T15:51:03;20.6;31.8
79750;SHT31;69233;51.968;5.658;2024-03-23T15:53:32;20.4;32.1
79750;SHT31;69233;51.968;5.658;2024-03-23T15:56:02;20.0;33.3
79750;SHT31;69233;51.968;5.658;2024-03-23T15:58:32;19.6;34.0
79750;SHT31;69233;51.968;5.658;2024-03-23T16:01:02;19.3;33.8
79750;SHT31;69233;51.968;5.658;2024-03-23T16:03:32;19.0;33.1
79750;SHT31;69233;51.968;5.658;2024-03-23T16:06:02;18.5;34.3
79750;SHT31;69233;51.968;5.658;2024-03-23T16:08:32;17.7;35.5
79750;SHT31;69233;51.968;5.658;2024-03-23T16:11:02;17.0;36.7
79750;SHT31;69233;51.968;5.658;2024-03-23T16:13:32;16.3;38.5
79750;SHT31;69233;51.968;5.658;2024-03-23T16:16:02;15.7;40.8
79750;SHT31;69233;51.968;5.658;2024-03-23T16:18:34;15.3;41.1
79750;SHT31;69233;51.968;5.658;2024-03-23T16:21:04;14.9;41.6
79750;SHT31;69233;51.968;5.658;2024-03-23T16:23:34;14.6;42.8
79750;SHT31;69233;51.968;5.658;2024-03-23T16:26:06;14.3;44.1
79750;SHT31;69233;51.968;5.658;2024-03-23T16:28:37;14.1;44.8
79750;SHT31;69233;51.968;5.658;2024-03-23T16:31:09;13.8;45.3
79750;SHT31;69233;51.968;5.658;2024-03-23T16:33:38;13.7;46.4
79750;SHT31;69233;51.968;5.658;2024-03-23T16:36:09;13.5;46.6
79750;SHT31;69233;51.968;5.658;2024-03-23T16:38:40;13.4;46.7
79750;SHT31;69233;51.968;5.658;2024-03-23T16:41:10;13.3;47.2
79750;SHT31;69233;51.968;5.658;2024-03-23T16:43:42;13.2;48.1
79750;SHT31;69233;51.968;5.658;2024-03-23T16:46:12;13.1;46.9
79750;SHT31;69233;51.968;5.658;2024-03-23T16:48:43;13.0;48.0
79750;SHT31;69233;51.968;5.658;2024-03-23T16:51:12;12.9;47.2
79750;SHT31;69233;51.968;5.658;2024-03-23T16:53:41;12.8;47.7
79750;SHT31;69233;51.968;5.658;2024-03-23T16:56:11;12.7;46.8
79750;SHT31;69233;51.968;5.658;2024-03-23T16:58:41;12.7;47.1
79750;SHT31;69233;51.968;5.658;2024-03-23T17:01:13;12.6;47.8
79750;SHT31;69233;51.968;5.658;2024-03-23T17:03:48;12.5;48.0
79750;SHT31;69233;51.968;5.658;2024-03-23T17:06:18;12.4;48.9
79750;SHT31;69233;51.968;5.658;2024-03-23T17:08:49;12.4;48.6
79750;SHT31;69233;51.968;5.658;2024-03-23T17:11:19;12.4;48.7
79750;SHT31;69233;51.968;5.658;2024-03-23T17:13:49;12.3;49.2
79750;SHT31;69233;51.968;5.658;2024-03-23T17:16:20;12.3;49.2